Accueil
METAR-TAF:

METAR-TAF

Aéroports :

Altenbourg, Allemagne

latitude: 50-58N, longitude: 012-30E, altitude: 195 m

Observation

Le bulletin a été fait il y a 44 minutes, à 22:50 UTC
Vent 3 kt de sud, variant entre sud-est et sud/sud-ouest
Température 19°C
Humidité 78%
Pression 1011 hPa
Visibilité 10 km ou plus

METAR: EDAC 172250Z AUTO 17003KT 130V200 9999 // BKN100/// 19/15 Q1011

Heure: 01:34 (23:34 UTC)

Prévision

Le bulletin a été fait il y a 6 heures et 34 minutes, à 17:00 UTC
Prévision valable du 17 à 18 UTC au 18 à 03 UTC
Vent 3 kt de direction variable
Visibilité 10 km ou plus
pas de nuages en-dessous de 1500 mètres et pas de cumulonimbus.
Probabilité 30% :
Temporairement
du 17 à 18 UTC au 17 à 20 UTC
Vent 12 kt de nord-ouest

TAF: EDAC 171700Z 1718/1803 VRB03KT CAVOK PROB30 TEMPO 1718/1720 32012KT

Observations et prévisions météorologiques de plus de 4000 aéroports (messages METAR et TAF).

Les stations disponibles sont représentées par des disques jaunes et rouges sur la carte.

Passer la souris dessus pour voir le nom de la station.

Cliquer dessus pour voir les observations et prévisions météorologiques.

Pour changer de carte: cliquez sur les boutons verts avec une croix noire pour zoomer, sur le bouton vert avec un tiret pour effectuer un zoom arrière, ou sur les flèches vertes pour les cartes adjacentes.


METAR-TAF: